createdAt,value
2022-11-20T00:01:15.634Z,-5.70
2022-11-20T00:03:42.767Z,-5.70
2022-11-20T00:06:13.693Z,-5.80
2022-11-20T00:08:40.491Z,-5.80
2022-11-20T00:11:12.809Z,-5.80
2022-11-20T00:13:42.398Z,-5.80
2022-11-20T00:16:11.203Z,-5.90
2022-11-20T00:18:38.107Z,-5.90
2022-11-20T00:21:12.441Z,-5.90
2022-11-20T00:23:39.094Z,-5.90
2022-11-20T00:26:11.753Z,-5.90
2022-11-20T00:28:38.553Z,-6.00
2022-11-20T00:31:06.098Z,-6.00
2022-11-20T00:33:33.110Z,-6.00
2022-11-20T00:36:04.808Z,-6.00
2022-11-20T00:38:32.588Z,-6.00
2022-11-20T00:41:01.617Z,-6.00
2022-11-20T00:43:28.664Z,-6.10
2022-11-20T00:46:07.850Z,-6.10
2022-11-20T00:48:34.636Z,-6.20
2022-11-20T00:51:01.451Z,-6.10
2022-11-20T00:53:28.501Z,-6.20
2022-11-20T00:56:07.001Z,-6.20
2022-11-20T00:58:37.179Z,-6.10
2022-11-20T01:01:10.761Z,-6.20
2022-11-20T01:03:43.719Z,-6.20
2022-11-20T01:06:12.095Z,-6.30
2022-11-20T01:08:39.519Z,-6.30
2022-11-20T01:11:08.934Z,-6.30
2022-11-20T01:13:38.274Z,-6.30
2022-11-20T01:16:13.636Z,-6.30
2022-11-20T01:18:43.098Z,-6.30
2022-11-20T01:21:13.028Z,-6.30
2022-11-20T01:23:42.018Z,-6.30
2022-11-20T01:26:11.078Z,-6.30
2022-11-20T01:28:39.705Z,-6.40
2022-11-20T01:31:19.427Z,-6.40
2022-11-20T01:33:47.845Z,-6.40
2022-11-20T01:36:16.024Z,-6.40
2022-11-20T01:38:43.095Z,-6.40
2022-11-20T01:41:11.759Z,-6.40
2022-11-20T01:43:38.371Z,-6.40
2022-11-20T01:46:20.636Z,-6.40
2022-11-20T01:49:00.946Z,-6.40
2022-11-20T01:51:41.685Z,-6.40
2022-11-20T01:54:13.440Z,-6.40
2022-11-20T01:56:43.759Z,-6.40
2022-11-20T01:59:13.225Z,-6.40
2022-11-20T02:01:40.225Z,-6.40
2022-11-20T02:04:09.068Z,-6.50
2022-11-20T02:07:06.395Z,-6.40
2022-11-20T02:09:33.030Z,-6.50
2022-11-20T02:12:00.237Z,-6.50
2022-11-20T02:14:28.219Z,-6.50
2022-11-20T02:16:55.873Z,-6.50
2022-11-20T02:19:22.718Z,-6.50
2022-11-20T02:21:55.676Z,-6.50
2022-11-20T02:24:24.199Z,-6.50
2022-11-20T02:26:54.724Z,-6.50
2022-11-20T02:29:39.243Z,-6.60
2022-11-20T02:32:06.389Z,-6.60
2022-11-20T02:34:33.066Z,-6.60
2022-11-20T02:37:00.489Z,-6.60
2022-11-20T02:39:29.201Z,-6.60
2022-11-20T02:41:57.079Z,-6.60
2022-11-20T02:44:23.874Z,-6.60
2022-11-20T02:46:50.410Z,-6.70
2022-11-20T02:49:17.901Z,-6.70
2022-11-20T02:51:44.885Z,-6.70
2022-11-20T02:54:11.522Z,-6.70
2022-11-20T02:56:40.139Z,-6.80
2022-11-20T02:59:07.086Z,-6.80
2022-11-20T03:01:33.752Z,-6.80
2022-11-20T03:04:00.434Z,-6.90
2022-11-20T03:06:27.103Z,-6.80
2022-11-20T03:08:53.740Z,-6.80
2022-11-20T03:11:21.340Z,-6.80
2022-11-20T03:13:47.909Z,-6.90
2022-11-20T03:16:20.138Z,-6.80
2022-11-20T03:18:47.149Z,-6.80
2022-11-20T03:21:15.169Z,-6.80
2022-11-20T03:23:42.498Z,-6.80
2022-11-20T03:26:23.450Z,-6.80
2022-11-20T03:28:53.554Z,-6.80
2022-11-20T03:31:24.001Z,-6.80
2022-11-20T03:33:50.840Z,-6.80
2022-11-20T03:36:18.664Z,-6.70
2022-11-20T03:38:45.315Z,-6.70
2022-11-20T03:41:20.357Z,-6.60
2022-11-20T03:43:55.877Z,-6.60
2022-11-20T03:46:23.423Z,-6.50
2022-11-20T03:48:52.004Z,-6.50
2022-11-20T03:51:25.876Z,-6.50
2022-11-20T03:53:54.531Z,-6.40
2022-11-20T03:56:24.629Z,-6.30
2022-11-20T03:58:51.373Z,-6.30
2022-11-20T04:01:21.351Z,-6.20
2022-11-20T04:03:48.453Z,-6.20
2022-11-20T04:06:20.908Z,-6.20
2022-11-20T04:08:52.413Z,-6.20
2022-11-20T04:11:26.146Z,-6.30
2022-11-20T04:13:55.914Z,-6.30
2022-11-20T04:16:24.525Z,-6.20
2022-11-20T04:18:55.845Z,-6.30
2022-11-20T04:21:22.808Z,-6.30
2022-11-20T04:23:50.402Z,-6.30
2022-11-20T04:26:17.320Z,-6.30
2022-11-20T04:28:43.969Z,-6.20
2022-11-20T04:31:13.363Z,-6.20
2022-11-20T04:33:40.927Z,-6.20
2022-11-20T04:36:14.765Z,-6.20
2022-11-20T04:38:41.815Z,-6.10
2022-11-20T04:41:13.312Z,-6.10
2022-11-20T04:43:39.909Z,-6.00
2022-11-20T04:46:06.535Z,-6.00
2022-11-20T04:48:33.099Z,-6.00
2022-11-20T04:51:04.849Z,-5.90
2022-11-20T04:53:31.606Z,-5.90
2022-11-20T04:56:05.765Z,-5.80
2022-11-20T04:58:32.464Z,-5.80
2022-11-20T05:01:06.917Z,-5.80
2022-11-20T05:03:35.549Z,-5.70
2022-11-20T05:06:06.500Z,-5.70
2022-11-20T05:08:34.098Z,-5.70
2022-11-20T05:11:06.039Z,-5.60
2022-11-20T05:13:32.901Z,-5.60
2022-11-20T05:16:08.190Z,-5.50
2022-11-20T05:18:36.754Z,-5.50
2022-11-20T05:21:03.602Z,-5.50
2022-11-20T05:23:30.781Z,-5.50
2022-11-20T05:25:59.491Z,-5.40
2022-11-20T05:28:27.590Z,-5.40
2022-11-20T05:30:54.189Z,-5.40
2022-11-20T05:33:21.117Z,-5.40
2022-11-20T05:35:48.978Z,-5.40
2022-11-20T05:38:15.810Z,-5.40
2022-11-20T05:40:42.691Z,-5.40
2022-11-20T05:43:09.319Z,-5.40
2022-11-20T05:45:36.080Z,-5.40
2022-11-20T05:48:02.634Z,-5.40
2022-11-20T05:50:29.466Z,-5.40
2022-11-20T05:52:58.495Z,-5.40
2022-11-20T05:55:25.063Z,-5.50
2022-11-20T05:57:54.460Z,-5.40
2022-11-20T06:00:21.161Z,-5.40
2022-11-20T06:02:47.838Z,-5.40
2022-11-20T06:05:14.557Z,-5.40
2022-11-20T06:07:41.252Z,-5.40
2022-11-20T06:10:08.012Z,-5.40
2022-11-20T06:12:34.669Z,-5.40
2022-11-20T06:15:01.787Z,-5.40
2022-11-20T06:17:28.430Z,-5.30
2022-11-20T06:19:54.985Z,-5.40
2022-11-20T06:22:21.631Z,-5.40
2022-11-20T06:24:48.634Z,-5.40
2022-11-20T06:27:15.290Z,-5.40
2022-11-20T06:29:41.914Z,-5.40
2022-11-20T06:32:08.706Z,-5.40
2022-11-20T06:34:35.248Z,-5.30
2022-11-20T06:37:01.852Z,-5.30
2022-11-20T06:39:28.470Z,-5.30
2022-11-20T06:41:58.749Z,-5.20
2022-11-20T06:44:26.489Z,-5.20
2022-11-20T06:46:53.082Z,-5.20
2022-11-20T06:49:19.976Z,-5.20
2022-11-20T06:51:46.864Z,-5.10
2022-11-20T06:54:13.491Z,-5.10
2022-11-20T06:56:40.087Z,-5.10
2022-11-20T06:59:08.205Z,-5.10
2022-11-20T07:01:35.842Z,-5.10
2022-11-20T07:04:34.337Z,-5.10
2022-11-20T07:07:04.588Z,-5.00
2022-11-20T07:09:31.290Z,-5.00
2022-11-20T07:11:57.853Z,-5.00
2022-11-20T07:14:24.468Z,-4.90
2022-11-20T07:16:51.061Z,-4.90
2022-11-20T07:19:17.690Z,-4.80
2022-11-20T07:21:44.291Z,-4.80
2022-11-20T07:24:10.853Z,-4.80
2022-11-20T07:26:37.444Z,-4.80
2022-11-20T07:29:04.409Z,-4.80
2022-11-20T07:31:30.970Z,-4.70
2022-11-20T07:33:57.612Z,-4.70
2022-11-20T07:36:24.197Z,-4.60
2022-11-20T07:38:50.853Z,-4.60
2022-11-20T07:41:17.430Z,-4.60
2022-11-20T07:43:44.174Z,-4.50
2022-11-20T07:46:10.769Z,-4.50
2022-11-20T07:48:37.366Z,-4.50
2022-11-20T07:51:04.033Z,-4.40
2022-11-20T07:53:30.780Z,-4.40
2022-11-20T07:56:00.194Z,-4.30
2022-11-20T07:58:26.802Z,-4.20
2022-11-20T08:00:53.491Z,-4.20
2022-11-20T08:03:24.737Z,-4.10
2022-11-20T08:05:51.817Z,-4.10
2022-11-20T08:08:18.319Z,-4.10
2022-11-20T08:10:44.922Z,-4.10
2022-11-20T08:13:30.209Z,-4.10
2022-11-20T08:15:56.793Z,-4.20
2022-11-20T08:18:31.187Z,-4.30
2022-11-20T08:20:58.729Z,-4.40
2022-11-20T08:23:25.417Z,-4.40
2022-11-20T08:25:52.341Z,-4.40
2022-11-20T08:28:21.740Z,-4.40
2022-11-20T08:30:50.739Z,-4.40
2022-11-20T08:33:18.311Z,-4.40
2022-11-20T08:35:45.174Z,-4.40
2022-11-20T08:38:11.701Z,-4.40
2022-11-20T08:40:38.350Z,-4.30
2022-11-20T08:43:05.296Z,-4.20
2022-11-20T08:45:34.524Z,-4.20
2022-11-20T08:48:03.459Z,-4.10
2022-11-20T08:50:32.858Z,-4.00
2022-11-20T08:53:05.864Z,-3.90
2022-11-20T08:55:33.018Z,-3.90
2022-11-20T08:58:03.698Z,-3.90
2022-11-20T09:00:30.274Z,-4.00
2022-11-20T09:02:56.865Z,-4.00
2022-11-20T09:05:23.440Z,-4.00
2022-11-20T09:07:49.993Z,-3.90
2022-11-20T09:10:24.098Z,-3.90
2022-11-20T09:12:52.590Z,-3.90
2022-11-20T09:15:20.041Z,-3.80
2022-11-20T09:17:53.337Z,-3.80
2022-11-20T09:20:20.300Z,-3.80
2022-11-20T09:22:47.160Z,-3.80
2022-11-20T09:25:13.764Z,-3.70
2022-11-20T09:27:42.314Z,-3.70
2022-11-20T09:30:09.343Z,-3.80
2022-11-20T09:32:36.643Z,-3.80
2022-11-20T09:35:03.403Z,-3.90
2022-11-20T09:37:29.934Z,-3.90
2022-11-20T09:39:56.590Z,-3.80
2022-11-20T09:42:45.650Z,-3.80
2022-11-20T09:45:17.465Z,-3.70
2022-11-20T09:47:49.693Z,-3.60
2022-11-20T09:50:37.431Z,-3.50
2022-11-20T09:53:24.998Z,-3.40
2022-11-20T09:55:53.049Z,-3.40
2022-11-20T09:58:46.514Z,-3.30
2022-11-20T10:01:17.561Z,-3.20
2022-11-20T10:04:02.271Z,-3.10
2022-11-20T10:06:34.608Z,-3.00
2022-11-20T10:09:14.503Z,-2.90
2022-11-20T10:12:22.729Z,-2.90
2022-11-20T10:15:23.422Z,-2.80
2022-11-20T10:17:56.222Z,-2.80
2022-11-20T10:20:33.700Z,-2.70
2022-11-20T10:23:03.056Z,-2.70
2022-11-20T10:25:46.818Z,-2.60
2022-11-20T10:28:25.732Z,-2.60
2022-11-20T10:31:01.899Z,-2.60
2022-11-20T10:33:50.063Z,-2.50
2022-11-20T10:36:24.885Z,-2.50
2022-11-20T10:39:01.770Z,-2.60
2022-11-20T10:41:37.243Z,-2.60
2022-11-20T10:44:40.821Z,-2.70
2022-11-20T10:47:17.143Z,-2.60
2022-11-20T10:49:52.167Z,-2.50
2022-11-20T10:52:39.838Z,-2.50
2022-11-20T10:55:27.777Z,-2.40
2022-11-20T10:58:22.181Z,-2.40
2022-11-20T11:00:48.965Z,-2.30
2022-11-20T11:03:28.333Z,-2.20
2022-11-20T11:05:59.867Z,-2.00
2022-11-20T11:08:33.624Z,-2.00
2022-11-20T11:11:03.576Z,-2.00
2022-11-20T11:13:31.626Z,-1.80
2022-11-20T11:15:58.673Z,-1.80
2022-11-20T11:18:41.843Z,-1.90
2022-11-20T11:21:10.685Z,-1.80
2022-11-20T11:23:43.183Z,-1.90
2022-11-20T11:26:24.668Z,-1.90
2022-11-20T11:29:00.168Z,-1.80
2022-11-20T11:31:32.673Z,-1.70
2022-11-20T11:34:13.772Z,-1.70
2022-11-20T11:36:41.028Z,-1.60
2022-11-20T11:39:14.466Z,-1.60
2022-11-20T11:41:41.949Z,-1.60
2022-11-20T11:44:49.040Z,-1.50
2022-11-20T11:47:23.894Z,-1.50
2022-11-20T11:50:01.080Z,-1.50
2022-11-20T11:52:28.847Z,-1.50
2022-11-20T11:55:00.709Z,-1.40
2022-11-20T11:57:52.752Z,-1.40
2022-11-20T12:00:21.945Z,-1.30
2022-11-20T12:02:51.454Z,-1.30
2022-11-20T12:05:30.275Z,-1.20
2022-11-20T12:08:02.648Z,-1.20
2022-11-20T12:10:42.053Z,-1.20
2022-11-20T12:13:32.716Z,-1.20
2022-11-20T12:15:59.447Z,-1.30
2022-11-20T12:18:26.433Z,-1.40
2022-11-20T12:21:24.413Z,-1.30
2022-11-20T12:24:28.696Z,-1.30
2022-11-20T12:27:33.113Z,-1.20
2022-11-20T12:30:19.470Z,-1.40
2022-11-20T12:33:11.024Z,-1.40
2022-11-20T12:36:14.512Z,-1.30
2022-11-20T12:38:53.239Z,-1.40
2022-11-20T12:41:53.347Z,-1.40
2022-11-20T12:45:02.825Z,-1.30
2022-11-20T12:48:13.142Z,-1.20
2022-11-20T12:51:13.530Z,-1.20
2022-11-20T12:53:38.745Z,-1.10
2022-11-20T12:56:39.548Z,-1.10
2022-11-20T12:59:46.784Z,-1.10
2022-11-20T13:02:34.742Z,-1.20
2022-11-20T13:05:12.254Z,-1.20
2022-11-20T13:07:40.836Z,-1.10
2022-11-20T13:10:41.550Z,-1.10
2022-11-20T13:13:33.921Z,-1.00
2022-11-20T13:16:14.739Z,-0.90
2022-11-20T13:18:43.507Z,-1.00
2022-11-20T13:21:22.028Z,-1.00
2022-11-20T13:23:48.768Z,-1.00
2022-11-20T13:26:20.004Z,-1.00
2022-11-20T13:28:48.779Z,-1.10
2022-11-20T13:31:32.368Z,-1.10
2022-11-20T13:34:00.427Z,-1.00
2022-11-20T13:36:30.096Z,-1.00
2022-11-20T13:38:57.503Z,-0.90
2022-11-20T13:41:38.623Z,-0.90
2022-11-20T13:44:24.245Z,-0.80
2022-11-20T13:46:51.308Z,-0.70
2022-11-20T13:49:43.817Z,-0.60
2022-11-20T13:52:43.365Z,-0.60
2022-11-20T13:55:37.574Z,-0.60
2022-11-20T13:58:48.806Z,-0.60
2022-11-20T14:01:20.523Z,-0.70
2022-11-20T14:04:05.751Z,-0.80
2022-11-20T14:06:40.096Z,-0.80
2022-11-20T14:09:11.556Z,-0.80
2022-11-20T14:11:47.821Z,-0.80
2022-11-20T14:14:18.115Z,-0.90
2022-11-20T14:16:48.225Z,-0.90
2022-11-20T14:19:20.660Z,-0.90
2022-11-20T14:21:53.180Z,-0.90
2022-11-20T14:24:22.178Z,-0.90
2022-11-20T14:26:50.475Z,-1.00
2022-11-20T14:29:19.383Z,-1.00
2022-11-20T14:31:52.700Z,-1.00
2022-11-20T14:34:24.390Z,-1.00
2022-11-20T14:37:00.484Z,-1.10
2022-11-20T14:39:34.806Z,-1.10
2022-11-20T14:42:01.661Z,-1.10
2022-11-20T14:44:34.211Z,-1.10
2022-11-20T14:47:03.470Z,-1.10
2022-11-20T14:49:32.490Z,-1.10
2022-11-20T14:52:14.372Z,-1.10
2022-11-20T14:54:49.083Z,-1.10
2022-11-20T14:57:23.675Z,-1.10
2022-11-20T14:59:50.301Z,-1.10
2022-11-20T15:02:17.473Z,-1.20
2022-11-20T15:04:51.689Z,-1.10
2022-11-20T15:07:29.832Z,-1.20
2022-11-20T15:10:12.804Z,-1.20
2022-11-20T15:12:54.378Z,-1.20
2022-11-20T15:15:31.319Z,-1.20
2022-11-20T15:17:58.850Z,-1.10
2022-11-20T15:20:29.376Z,-1.10
2022-11-20T15:22:56.017Z,-1.00
2022-11-20T15:25:23.664Z,-0.90
2022-11-20T15:27:56.756Z,-0.90
2022-11-20T15:30:24.128Z,-0.90
2022-11-20T15:32:50.823Z,-0.90
2022-11-20T15:35:17.490Z,-0.90
2022-11-20T15:37:44.142Z,-0.80
2022-11-20T15:40:11.349Z,-0.80
2022-11-20T15:42:38.027Z,-0.80
2022-11-20T15:45:05.150Z,-0.80
2022-11-20T15:47:35.229Z,-0.80
2022-11-20T15:50:02.023Z,-0.70
2022-11-20T15:52:33.100Z,-0.70
2022-11-20T15:55:11.508Z,-0.70
2022-11-20T15:57:38.104Z,-0.70
2022-11-20T16:00:04.935Z,-0.60
2022-11-20T16:02:31.609Z,-0.60
2022-11-20T16:04:58.353Z,-0.60
2022-11-20T16:07:25.064Z,-0.60
2022-11-20T16:09:51.656Z,-0.60
2022-11-20T16:12:38.116Z,-0.60
2022-11-20T16:15:23.942Z,-0.50
2022-11-20T16:17:50.542Z,-0.50
2022-11-20T16:20:17.071Z,-0.50
2022-11-20T16:22:43.646Z,-0.50
2022-11-20T16:25:10.144Z,-0.50
2022-11-20T16:27:36.705Z,-0.50
2022-11-20T16:30:03.508Z,-0.40
2022-11-20T16:32:30.120Z,-0.40
2022-11-20T16:34:56.643Z,-0.40
2022-11-20T16:37:23.401Z,-0.40
2022-11-20T16:39:49.977Z,-0.40
2022-11-20T16:42:16.577Z,-0.40
2022-11-20T16:44:46.547Z,-0.40
2022-11-20T16:47:13.129Z,-0.40
2022-11-20T16:49:39.675Z,-0.40
2022-11-20T16:52:06.352Z,-0.30
2022-11-20T16:54:32.985Z,-0.30
2022-11-20T16:56:59.588Z,-0.30
2022-11-20T16:59:26.227Z,-0.30
2022-11-20T17:01:52.875Z,-0.30
2022-11-20T17:04:22.158Z,-0.30
2022-11-20T17:06:48.857Z,-0.30
2022-11-20T17:09:15.478Z,-0.30
2022-11-20T17:11:42.412Z,-0.30
2022-11-20T17:14:11.179Z,-0.30
2022-11-20T17:16:37.971Z,-0.30
2022-11-20T17:19:05.455Z,-0.30
2022-11-20T17:21:35.813Z,-0.30
2022-11-20T17:24:04.536Z,-0.20
2022-11-20T17:26:31.424Z,-0.30
2022-11-20T17:28:59.029Z,-0.20
2022-11-20T17:31:26.849Z,-0.30
2022-11-20T17:33:53.772Z,-0.30
2022-11-20T17:36:20.880Z,-0.30
2022-11-20T17:38:48.117Z,-0.20
2022-11-20T17:41:17.318Z,-0.20
2022-11-20T17:43:44.653Z,-0.20
2022-11-20T17:46:14.540Z,-0.20
2022-11-20T17:48:44.013Z,-0.20
2022-11-20T17:51:13.322Z,-0.20
2022-11-20T17:53:41.906Z,-0.20
2022-11-20T17:56:26.941Z,-0.20
2022-11-20T17:58:53.819Z,-0.20
2022-11-20T18:01:20.982Z,-0.20
2022-11-20T18:03:47.985Z,-0.20
2022-11-20T18:06:23.706Z,-0.20
2022-11-20T18:08:50.827Z,-0.20
2022-11-20T18:11:31.935Z,-0.20
2022-11-20T18:14:19.807Z,-0.10
2022-11-20T18:16:49.145Z,-0.10
2022-11-20T18:19:19.881Z,-0.10
2022-11-20T18:21:46.778Z,-0.10
2022-11-20T18:24:13.845Z,-0.10
2022-11-20T18:26:44.259Z,-0.10
2022-11-20T18:29:12.136Z,-0.10
2022-11-20T18:31:39.554Z,-0.10
2022-11-20T18:34:07.666Z,-0.10
2022-11-20T18:36:34.762Z,0.00
2022-11-20T18:39:05.148Z,-0.10
2022-11-20T18:41:50.523Z,-0.10
2022-11-20T18:44:40.944Z,0.00
2022-11-20T18:47:14.208Z,0.00
2022-11-20T18:49:43.191Z,-0.10
2022-11-20T18:52:09.900Z,-0.10
2022-11-20T18:54:37.254Z,0.00
2022-11-20T18:57:05.055Z,-0.10
2022-11-20T18:59:32.262Z,-0.10
2022-11-20T19:01:59.358Z,-0.10
2022-11-20T19:04:26.706Z,-0.10
2022-11-20T19:06:56.231Z,-0.10
2022-11-20T19:09:24.314Z,-0.10
2022-11-20T19:11:51.623Z,-0.10
2022-11-20T19:14:18.428Z,-0.10
2022-11-20T19:16:45.165Z,-0.10
2022-11-20T19:19:12.194Z,-0.10
2022-11-20T19:21:38.942Z,-0.10
2022-11-20T19:24:05.832Z,-0.10
2022-11-20T19:26:35.391Z,-0.10
2022-11-20T19:29:02.325Z,-0.10
2022-11-20T19:31:29.027Z,-0.10
2022-11-20T19:34:03.805Z,-0.10
2022-11-20T19:36:39.069Z,-0.10
2022-11-20T19:39:09.661Z,0.00
2022-11-20T19:41:38.516Z,0.00
2022-11-20T19:44:07.951Z,0.00
2022-11-20T19:46:36.496Z,0.00
2022-11-20T19:49:04.307Z,0.00
2022-11-20T19:51:34.214Z,0.00
2022-11-20T19:54:02.208Z,0.10
2022-11-20T19:56:30.840Z,0.10
2022-11-20T19:58:57.910Z,0.10
2022-11-20T20:01:27.168Z,0.10
2022-11-20T20:03:55.092Z,0.10
2022-11-20T20:06:24.115Z,0.10
2022-11-20T20:08:56.072Z,0.10
2022-11-20T20:11:25.041Z,0.10
2022-11-20T20:13:51.802Z,0.10
2022-11-20T20:16:21.920Z,0.10
2022-11-20T20:18:48.832Z,0.10
2022-11-20T20:21:18.483Z,0.10
2022-11-20T20:23:50.008Z,0.10
2022-11-20T20:26:16.601Z,0.10
2022-11-20T20:28:43.200Z,0.10
2022-11-20T20:31:12.424Z,0.10
2022-11-20T20:33:40.212Z,0.10
2022-11-20T20:36:08.683Z,0.10
2022-11-20T20:38:35.660Z,0.10
2022-11-20T20:41:02.335Z,0.10
2022-11-20T20:43:29.480Z,0.10
2022-11-20T20:45:56.291Z,0.10
2022-11-20T20:48:24.947Z,0.20
2022-11-20T20:51:01.053Z,0.10
2022-11-20T20:53:29.949Z,0.20
2022-11-20T20:55:57.334Z,0.20
2022-11-20T20:58:24.848Z,0.20
2022-11-20T21:00:51.770Z,0.20
2022-11-20T21:03:18.931Z,0.20
2022-11-20T21:05:46.171Z,0.20
2022-11-20T21:08:22.050Z,0.20
2022-11-20T21:10:49.981Z,0.20
2022-11-20T21:13:17.758Z,0.20
2022-11-20T21:15:47.958Z,0.20
2022-11-20T21:18:16.708Z,0.20
2022-11-20T21:21:03.162Z,0.20
2022-11-20T21:23:29.914Z,0.20
2022-11-20T21:25:56.736Z,0.30
2022-11-20T21:28:23.436Z,0.20
2022-11-20T21:30:50.077Z,0.20
2022-11-20T21:33:16.777Z,0.30
2022-11-20T21:35:43.420Z,0.30
2022-11-20T21:38:10.030Z,0.30
2022-11-20T21:40:36.637Z,0.30
2022-11-20T21:43:03.223Z,0.30
2022-11-20T21:45:29.885Z,0.30
2022-11-20T21:47:56.453Z,0.30
2022-11-20T21:50:23.006Z,0.30
2022-11-20T21:52:49.624Z,0.30
2022-11-20T21:55:16.246Z,0.30
2022-11-20T21:57:42.837Z,0.40
2022-11-20T22:00:10.477Z,0.40
2022-11-20T22:02:40.179Z,0.40
2022-11-20T22:05:07.880Z,0.40
2022-11-20T22:07:35.127Z,0.40
2022-11-20T22:10:01.907Z,0.40
2022-11-20T22:12:28.561Z,0.40
2022-11-20T22:14:55.155Z,0.40
2022-11-20T22:17:41.767Z,0.40
2022-11-20T22:20:09.379Z,0.40
2022-11-20T22:22:35.956Z,0.40
2022-11-20T22:25:02.514Z,0.40
2022-11-20T22:27:29.133Z,0.40
2022-11-20T22:29:55.848Z,0.40
2022-11-20T22:32:22.483Z,0.40
2022-11-20T22:34:49.165Z,0.40
2022-11-20T22:37:15.967Z,0.50
2022-11-20T22:39:42.582Z,0.40
2022-11-20T22:42:09.231Z,0.50
2022-11-20T22:44:35.860Z,0.50
2022-11-20T22:47:03.665Z,0.50
2022-11-20T22:49:33.069Z,0.50
2022-11-20T22:51:59.684Z,0.50
2022-11-20T22:54:26.576Z,0.50
2022-11-20T22:56:53.326Z,0.50
2022-11-20T22:59:19.919Z,0.50
2022-11-20T23:01:46.610Z,0.50
2022-11-20T23:04:13.221Z,0.50
2022-11-20T23:06:39.877Z,0.50
2022-11-20T23:09:07.934Z,0.50
2022-11-20T23:11:35.550Z,0.50
2022-11-20T23:14:05.345Z,0.50
2022-11-20T23:16:33.549Z,0.50
2022-11-20T23:19:08.046Z,0.50
2022-11-20T23:21:36.073Z,0.50
2022-11-20T23:24:03.429Z,0.60
2022-11-20T23:26:32.597Z,0.60
2022-11-20T23:29:00.152Z,0.60
2022-11-20T23:31:29.225Z,0.60
2022-11-20T23:33:56.510Z,0.60
2022-11-20T23:36:23.162Z,0.60
2022-11-20T23:38:49.812Z,0.60
2022-11-20T23:41:17.099Z,0.60
2022-11-20T23:43:43.732Z,0.60
2022-11-20T23:46:15.103Z,0.60
2022-11-20T23:48:43.117Z,0.60
2022-11-20T23:51:09.925Z,0.60
2022-11-20T23:53:36.602Z,0.60
2022-11-20T23:56:05.246Z,0.60
2022-11-20T23:58:41.379Z,0.60
